DATA ZE ZPRÁV METAR

Zprávy METAR jsou pravidelné letecké meteorologické zprávy o podmínkách na daném letišti, zejména o stavu oblačnosti, viditelnosti a průběhu počasí v poslední hodině. Na letištích s pravidelným provozem jsou vydávány každých 30 minut, jinak zpravidla jednou za hodinu. Ne každé letiště (zejména komerční) poskytuje zprávy po celých 24 hodin denně. Více o zprávách METAR najdete na této stránce.

Zprávy METAR z letišť v blízkém okolí

LKPR - Praha Ruzyně, Česká republika
Směr a vzdálenost od této stanice: ZJZ 98km
Aktualizováno: 21.02.2018 23:30
Jasno, Jasná obloha
Jasno, Jasná obloha
 Vítr ze směru SSV
Vítr: SSV 7 km/h
Teplota: -5°C
Chlad větru: -8°C
Rosný bod: -8°C
Vlhkost: 80%
Tlak vzduchu: 1021 hPa
Stav počasí: Jasno
Oblačnost: Jasná obloha
Dohlednost: více než 10 km
2018/02/21 22:30 LKPR 212230Z 02004KT CAVOK M05/M08 Q1021 NOSIG
LKTB - Brno Tuřany, Česká republika
Směr a vzdálenost od této stanice: JJV 174km
Aktualizováno: 21.02.2018 23:30
Jasno, Jasná obloha
Jasno, Jasná obloha
 Vítr ze směru SSV
Vítr: SSV 15 km/h
Teplota: -1°C
Chlad větru: -6°C
Rosný bod: -6°C
Vlhkost: 69%
Tlak vzduchu: 1019 hPa
Stav počasí: Jasno
Oblačnost: Jasná obloha
Dohlednost: více než 10 km
2018/02/21 22:30 LKTB 212230Z 03008KT 350V050 CAVOK M01/M06 Q1019 NOSIG
 
LKKV - Karlovy Vary, Česká republika
Směr a vzdálenost od této stanice: Z 187km
Aktualizováno: 21.02.2018 23:00
Jasno, Jasná obloha
Jasno, Jasná obloha
 Vítr ze směru VSV
Vítr: VSV 20 km/h
Teplota: -5°C
Chlad větru: -12°C
Rosný bod: -8°C
Vlhkost: 80%
Tlak vzduchu: 1019 hPa
Stav počasí: Jasno
Oblačnost: Jasná obloha
Dohlednost: více než 10 km
2018/02/21 22:00 LKKV 212200Z 06011KT CAVOK M05/M08 Q1019
LKMT - Ostrava Mošnov, Česká republika
Směr a vzdálenost od této stanice: VJV 208km
Aktualizováno: 21.02.2018 23:30
Zataženo
Zataženo
 Vítr ze směru SV
Vítr: SV 17 km/h
Teplota: -3°C
Chlad větru: -8°C
Rosný bod: -5°C
Vlhkost: 86%
Tlak vzduchu: 1021 hPa
Oblačnost: Zataženo
Dohlednost: 6 km
Detaily oblačnosti: Skoro jasno 914 m
Zataženo 1189 m
2018/02/21 22:30 LKMT 212230Z 04009KT 6000 FEW030 OVC039 M03/M05 Q1021 NOSIG
 
LKPD - Pardubice, Česká republika
Směr a vzdálenost od této stanice: JJV 56km
Aktualizováno: 21.02.2018 23:00
Jasno, Jasná obloha
Jasno, Jasná obloha
 Vítr ze směru Bezvětří
Vítr: Bezvětří
Teplota: -4°C
Rosný bod: -8°C
Vlhkost: 74%
Tlak vzduchu: 1021 hPa
Stav počasí: Jasno
Oblačnost: Jasná obloha
Dohlednost: více než 10 km
2018/02/21 22:00 LKPD 212200Z 00000KT CAVOK M04/M08 Q1021
LKKB - Praha Kbely, Česká republika
Směr a vzdálenost od této stanice: ZJZ 81km
Aktualizováno: 21.02.2018 23:00
Jasno, Jasná obloha
Jasno, Jasná obloha
 Vítr ze směru SSV
Vítr: SSV 7 km/h
Teplota: -3°C
Chlad větru: -6°C
Rosný bod: -8°C
Vlhkost: 69%
Tlak vzduchu: 1022 hPa
Stav počasí: Jasno
Oblačnost: Jasná obloha
Dohlednost: více než 10 km
2018/02/21 22:00 LKKB 212200Z 02004KT 350V070 CAVOK M03/M08 Q1022
 
LKCV - Čáslav, Česká republika
Směr a vzdálenost od této stanice: J 63km
Aktualizováno: 21.02.2018 23:00
Jasno, Jasná obloha
Jasno, Jasná obloha
 Vítr ze směru SV
Vítr: SV 4 km/h
Teplota: -4°C
Rosný bod: -7°C
Vlhkost: 80%
Tlak vzduchu: 1021 hPa
Stav počasí: Jasno
Oblačnost: Jasná obloha
Dohlednost: více než 10 km
2018/02/21 22:00 LKCV 212200Z 04002KT CAVOK M04/M07 Q1021 NOSIG
LKNA - Náměšť n. Osl., Česká republika
Směr a vzdálenost od této stanice: JJV 154km
Aktualizováno: 21.02.2018 23:00
Skoro zataženo
Skoro zataženo
 Vítr ze směru SSV
Vítr: SSV 15 km/h
Teplota: -3°C
Chlad větru: -8°C
Rosný bod: -8°C
Vlhkost: 69%
Tlak vzduchu: 1018 hPa
Oblačnost: Skoro zataženo
Dohlednost: 10 km
Detaily oblačnosti: Skoro zataženo 732 m
Skoro zataženo 3658 m
2018/02/21 22:00 LKNA 212200Z 03008KT 9999 BKN024 BKN120 M03/M08 Q1018
 
LKLN - Plzeň Líně, Česká republika
Směr a vzdálenost od této stanice: ZJZ 184km
Aktualizováno: 21.02.2018 23:00
Jasno, Jasná obloha
Jasno, Jasná obloha
 Vítr ze směru SSV
Vítr: SSV 7 km/h
Teplota: -3°C
Chlad větru: -6°C
Rosný bod: -7°C
Vlhkost: 74%
Tlak vzduchu: 1021 hPa
Stav počasí: Jasno
Oblačnost: Jasná obloha
Dohlednost: více než 10 km
2018/02/21 22:00 LKLN 212200Z AUTO 03004KT 330V070 CAVOK M03/M07 Q1021
EDDC - Dresden Klotzsch, Německo
Směr a vzdálenost od této stanice: ZSZ 142km
Aktualizováno: 21.02.2018 23:50
Jasno, Jasná obloha
Jasno, Jasná obloha
 Vítr ze směru VSV
Vítr: VSV 6 km/h
Teplota: -3°C
Rosný bod: -6°C
Vlhkost: 80%
Tlak vzduchu: 1024 hPa
Stav počasí: Jasno
Oblačnost: Jasná obloha
Dohlednost: více než 10 km
2018/02/21 22:50 EDDC 212250Z 06003KT CAVOK M03/M06 Q1024